sensor_id;sensor_type;location;lat;lon;timestamp;pressure;altitude;pressure_sealevel;temperature
18713;BMP280;9485;49.386;8.674;2022-11-15T00:04:07;100148.78;;;13.06
18713;BMP280;9485;49.386;8.674;2022-11-15T00:09:47;100151.09;;;13.07
18713;BMP280;9485;49.386;8.674;2022-11-15T00:15:27;100138.47;;;13.08
18713;BMP280;9485;49.386;8.674;2022-11-15T00:21:10;100144.38;;;13.10
18713;BMP280;9485;49.386;8.674;2022-11-15T00:26:50;100128.13;;;13.16
18713;BMP280;9485;49.386;8.674;2022-11-15T00:32:32;100131.47;;;13.15
18713;BMP280;9485;49.386;8.674;2022-11-15T00:38:11;100125.06;;;13.09
18713;BMP280;9485;49.386;8.674;2022-11-15T00:43:52;100117.28;;;13.15
18713;BMP280;9485;49.386;8.674;2022-11-15T00:49:32;100109.56;;;13.15
18713;BMP280;9485;49.386;8.674;2022-11-15T00:55:15;100117.56;;;13.11
18713;BMP280;9485;49.386;8.674;2022-11-15T01:00:55;100108.59;;;13.02
18713;BMP280;9485;49.386;8.674;2022-11-15T01:06:36;100102.16;;;12.96
18713;BMP280;9485;49.386;8.674;2022-11-15T01:12:16;100097.53;;;12.93
18713;BMP280;9485;49.386;8.674;2022-11-15T01:17:56;100094.69;;;12.93
18713;BMP280;9485;49.386;8.674;2022-11-15T01:23:38;100102.97;;;12.91
18713;BMP280;9485;49.386;8.674;2022-11-15T01:29:18;100096.50;;;12.85
18713;BMP280;9485;49.386;8.674;2022-11-15T01:34:57;100088.28;;;12.71
18713;BMP280;9485;49.386;8.674;2022-11-15T01:40:39;100085.72;;;12.67
18713;BMP280;9485;49.386;8.674;2022-11-15T01:46:28;100077.22;;;12.62
18713;BMP280;9485;49.386;8.674;2022-11-15T01:52:13;100071.88;;;12.47
18713;BMP280;9485;49.386;8.674;2022-11-15T01:58:00;100074.47;;;12.34
18713;BMP280;9485;49.386;8.674;2022-11-15T02:03:48;100063.13;;;12.29
18713;BMP280;9485;49.386;8.674;2022-11-15T02:09:29;100046.44;;;12.14
18713;BMP280;9485;49.386;8.674;2022-11-15T02:15:11;100047.72;;;12.13
18713;BMP280;9485;49.386;8.674;2022-11-15T02:21:07;100049.25;;;12.03
18713;BMP280;9485;49.386;8.674;2022-11-15T02:27:38;100029.47;;;11.98
18713;BMP280;9485;49.386;8.674;2022-11-15T02:33:34;100033.06;;;11.98
18713;BMP280;9485;49.386;8.674;2022-11-15T02:39:23;100020.72;;;12.01
18713;BMP280;9485;49.386;8.674;2022-11-15T02:45:09;100004.50;;;12.02
18713;BMP280;9485;49.386;8.674;2022-11-15T02:50:52;100000.41;;;11.98
18713;BMP280;9485;49.386;8.674;2022-11-15T02:56:32;100003.75;;;12.01
18713;BMP280;9485;49.386;8.674;2022-11-15T03:02:31;99990.63;;;11.98
18713;BMP280;9485;49.386;8.674;2022-11-15T03:08:22;99986.78;;;11.96
18713;BMP280;9485;49.386;8.674;2022-11-15T03:14:17;99992.69;;;11.98
18713;BMP280;9485;49.386;8.674;2022-11-15T03:20:01;99984.19;;;12.03
18713;BMP280;9485;49.386;8.674;2022-11-15T03:25:48;99976.22;;;12.07
18713;BMP280;9485;49.386;8.674;2022-11-15T03:31:35;99973.13;;;12.11
18713;BMP280;9485;49.386;8.674;2022-11-15T03:37:35;99986.22;;;12.14
18713;BMP280;9485;49.386;8.674;2022-11-15T03:43:30;99976.72;;;12.17
18713;BMP280;9485;49.386;8.674;2022-11-15T03:49:19;99969.47;;;12.27
18713;BMP280;9485;49.386;8.674;2022-11-15T03:55:04;99979.50;;;12.33
18713;BMP280;9485;49.386;8.674;2022-11-15T04:00:44;99973.03;;;12.38
18713;BMP280;9485;49.386;8.674;2022-11-15T04:06:24;99980.50;;;12.47
18713;BMP280;9485;49.386;8.674;2022-11-15T04:12:05;99981.25;;;12.53
18713;BMP280;9485;49.386;8.674;2022-11-15T04:17:50;99990.75;;;12.61
18713;BMP280;9485;49.386;8.674;2022-11-15T04:23:29;99976.03;;;12.68
18713;BMP280;9485;49.386;8.674;2022-11-15T04:29:38;99967.75;;;12.75
18713;BMP280;9485;49.386;8.674;2022-11-15T04:35:19;99961.28;;;12.80
18713;BMP280;9485;49.386;8.674;2022-11-15T04:40:58;99964.09;;;12.85
18713;BMP280;9485;49.386;8.674;2022-11-15T04:46:38;99964.63;;;12.89
18713;BMP280;9485;49.386;8.674;2022-11-15T04:52:20;99962.00;;;12.97
18713;BMP280;9485;49.386;8.674;2022-11-15T04:58:00;99956.31;;;13.02
18713;BMP280;9485;49.386;8.674;2022-11-15T05:03:40;99940.56;;;13.07
18713;BMP280;9485;49.386;8.674;2022-11-15T05:09:39;99939.50;;;13.10
18713;BMP280;9485;49.386;8.674;2022-11-15T05:15:19;99931.78;;;13.10
18713;BMP280;9485;49.386;8.674;2022-11-15T05:21:03;99937.94;;;13.14
18713;BMP280;9485;49.386;8.674;2022-11-15T05:26:44;99932.28;;;13.14
18713;BMP280;9485;49.386;8.674;2022-11-15T05:32:24;99932.53;;;13.16
18713;BMP280;9485;49.386;8.674;2022-11-15T05:38:04;99922.97;;;13.19
18713;BMP280;9485;49.386;8.674;2022-11-15T05:43:46;99930.41;;;13.22
18713;BMP280;9485;49.386;8.674;2022-11-15T05:49:31;99931.69;;;13.27
18713;BMP280;9485;49.386;8.674;2022-11-15T05:55:13;99933.16;;;13.33
18713;BMP280;9485;49.386;8.674;2022-11-15T06:00:55;99934.91;;;13.42
18713;BMP280;9485;49.386;8.674;2022-11-15T06:06:34;99938.97;;;13.51
18713;BMP280;9485;49.386;8.674;2022-11-15T06:12:13;99934.25;;;13.59
18713;BMP280;9485;49.386;8.674;2022-11-15T06:17:56;99933.44;;;13.64
18713;BMP280;9485;49.386;8.674;2022-11-15T06:23:36;99942.94;;;13.67
18713;BMP280;9485;49.386;8.674;2022-11-15T06:29:16;99940.34;;;13.69
18713;BMP280;9485;49.386;8.674;2022-11-15T06:34:57;99928.25;;;13.68
18713;BMP280;9485;49.386;8.674;2022-11-15T06:40:38;99933.69;;;13.66
18713;BMP280;9485;49.386;8.674;2022-11-15T06:46:18;99940.63;;;13.65
18713;BMP280;9485;49.386;8.674;2022-11-15T06:51:59;99933.69;;;13.66
18713;BMP280;9485;49.386;8.674;2022-11-15T06:57:47;99919.00;;;13.62
18713;BMP280;9485;49.386;8.674;2022-11-15T07:03:26;99920.78;;;13.65
18713;BMP280;9485;49.386;8.674;2022-11-15T07:09:08;99924.34;;;13.71
18713;BMP280;9485;49.386;8.674;2022-11-15T07:14:47;99938.19;;;13.80
18713;BMP280;9485;49.386;8.674;2022-11-15T07:20:30;99951.75;;;13.93
18713;BMP280;9485;49.386;8.674;2022-11-15T07:26:11;99947.75;;;14.07
18713;BMP280;9485;49.386;8.674;2022-11-15T07:31:50;99941.91;;;14.23
18713;BMP280;9485;49.386;8.674;2022-11-15T07:37:30;99948.13;;;14.45
18713;BMP280;9485;49.386;8.674;2022-11-15T07:43:11;99944.22;;;14.67
18713;BMP280;9485;49.386;8.674;2022-11-15T07:48:50;99950.72;;;14.86
18713;BMP280;9485;49.386;8.674;2022-11-15T07:54:29;99955.38;;;15.01
18713;BMP280;9485;49.386;8.674;2022-11-15T08:00:13;99953.31;;;15.20
18713;BMP280;9485;49.386;8.674;2022-11-15T08:05:53;99957.19;;;15.41
18713;BMP280;9485;49.386;8.674;2022-11-15T08:11:32;99942.69;;;15.58
18713;BMP280;9485;49.386;8.674;2022-11-15T08:17:13;99939.13;;;15.70
18713;BMP280;9485;49.386;8.674;2022-11-15T08:22:53;99939.25;;;15.77
18713;BMP280;9485;49.386;8.674;2022-11-15T08:28:33;99933.13;;;15.86
18713;BMP280;9485;49.386;8.674;2022-11-15T08:34:13;99928.78;;;15.98
18713;BMP280;9485;49.386;8.674;2022-11-15T08:39:53;99925.19;;;16.11
18713;BMP280;9485;49.386;8.674;2022-11-15T08:45:35;99928.03;;;16.24
18713;BMP280;9485;49.386;8.674;2022-11-15T08:51:16;99913.94;;;16.31
18713;BMP280;9485;49.386;8.674;2022-11-15T08:56:56;99917.66;;;16.39
18713;BMP280;9485;49.386;8.674;2022-11-15T09:02:37;99919.09;;;16.46
18713;BMP280;9485;49.386;8.674;2022-11-15T09:08:19;99915.81;;;16.55
18713;BMP280;9485;49.386;8.674;2022-11-15T09:13:58;99920.50;;;16.65
18713;BMP280;9485;49.386;8.674;2022-11-15T09:19:38;99916.84;;;16.77
18713;BMP280;9485;49.386;8.674;2022-11-15T09:25:18;99921.03;;;16.89
18713;BMP280;9485;49.386;8.674;2022-11-15T09:30:59;99913.81;;;17.09
18713;BMP280;9485;49.386;8.674;2022-11-15T09:36:38;99910.00;;;17.39
18713;BMP280;9485;49.386;8.674;2022-11-15T09:42:38;99906.00;;;17.55
18713;BMP280;9485;49.386;8.674;2022-11-15T09:48:44;99909.53;;;17.69
18713;BMP280;9485;49.386;8.674;2022-11-15T09:54:49;99905.56;;;17.72
18713;BMP280;9485;49.386;8.674;2022-11-15T10:00:18;99903.56;;;17.80
18713;BMP280;9485;49.386;8.674;2022-11-15T10:05:42;99905.19;;;17.96
18713;BMP280;9485;49.386;8.674;2022-11-15T10:11:08;99893.53;;;18.14
18713;BMP280;9485;49.386;8.674;2022-11-15T10:17:13;99894.78;;;18.26
18713;BMP280;9485;49.386;8.674;2022-11-15T10:22:41;99885.38;;;18.18
18713;BMP280;9485;49.386;8.674;2022-11-15T10:28:13;99874.66;;;18.11
18713;BMP280;9485;49.386;8.674;2022-11-15T10:33:38;99872.88;;;18.01
18713;BMP280;9485;49.386;8.674;2022-11-15T10:39:00;99872.44;;;17.97
18713;BMP280;9485;49.386;8.674;2022-11-15T10:44:25;99860.28;;;17.96
18713;BMP280;9485;49.386;8.674;2022-11-15T10:50:00;99862.94;;;18.02
18713;BMP280;9485;49.386;8.674;2022-11-15T10:55:26;99847.41;;;18.10
18713;BMP280;9485;49.386;8.674;2022-11-15T11:00:47;99840.41;;;18.18
18713;BMP280;9485;49.386;8.674;2022-11-15T11:06:13;99836.66;;;18.23
18713;BMP280;9485;49.386;8.674;2022-11-15T11:11:46;99825.66;;;18.27
18713;BMP280;9485;49.386;8.674;2022-11-15T11:17:22;99823.59;;;18.35
18713;BMP280;9485;49.386;8.674;2022-11-15T11:23:00;99806.47;;;18.50
18713;BMP280;9485;49.386;8.674;2022-11-15T11:28:36;99799.13;;;18.62
18713;BMP280;9485;49.386;8.674;2022-11-15T11:34:13;99786.00;;;18.67
18713;BMP280;9485;49.386;8.674;2022-11-15T11:39:52;99763.50;;;18.78
18713;BMP280;9485;49.386;8.674;2022-11-15T11:45:23;99771.53;;;18.80
18713;BMP280;9485;49.386;8.674;2022-11-15T11:50:45;99752.44;;;18.75
18713;BMP280;9485;49.386;8.674;2022-11-15T11:56:23;99748.06;;;18.81
18713;BMP280;9485;49.386;8.674;2022-11-15T12:01:45;99741.19;;;18.77
18713;BMP280;9485;49.386;8.674;2022-11-15T12:07:14;99731.84;;;18.69
18713;BMP280;9485;49.386;8.674;2022-11-15T12:12:50;99719.81;;;18.63
18713;BMP280;9485;49.386;8.674;2022-11-15T12:18:16;99717.72;;;18.71
18713;BMP280;9485;49.386;8.674;2022-11-15T12:23:43;99706.50;;;18.73
18713;BMP280;9485;49.386;8.674;2022-11-15T12:29:15;99695.06;;;18.73
18713;BMP280;9485;49.386;8.674;2022-11-15T12:34:43;99685.69;;;18.65
18713;BMP280;9485;49.386;8.674;2022-11-15T12:40:38;99686.78;;;18.39
18713;BMP280;9485;49.386;8.674;2022-11-15T12:46:04;99665.59;;;18.27
18713;BMP280;9485;49.386;8.674;2022-11-15T12:52:06;99658.50;;;18.13
18713;BMP280;9485;49.386;8.674;2022-11-15T12:57:39;99661.50;;;18.08
18713;BMP280;9485;49.386;8.674;2022-11-15T13:03:23;99657.31;;;18.09
18713;BMP280;9485;49.386;8.674;2022-11-15T13:08:48;99638.88;;;18.10
18713;BMP280;9485;49.386;8.674;2022-11-15T13:14:48;99632.25;;;18.22
18713;BMP280;9485;49.386;8.674;2022-11-15T13:20:25;99637.81;;;18.35
18713;BMP280;9485;49.386;8.674;2022-11-15T13:26:16;99634.78;;;18.48
18713;BMP280;9485;49.386;8.674;2022-11-15T13:31:42;99626.41;;;18.58
18713;BMP280;9485;49.386;8.674;2022-11-15T13:37:12;99610.41;;;18.62
18713;BMP280;9485;49.386;8.674;2022-11-15T13:42:47;99607.34;;;18.68
18713;BMP280;9485;49.386;8.674;2022-11-15T13:48:08;99588.69;;;18.67
18713;BMP280;9485;49.386;8.674;2022-11-15T13:53:32;99577.06;;;18.65
18713;BMP280;9485;49.386;8.674;2022-11-15T13:58:53;99568.66;;;18.67
18713;BMP280;9485;49.386;8.674;2022-11-15T14:04:20;99558.56;;;18.73
18713;BMP280;9485;49.386;8.674;2022-11-15T14:09:43;99549.38;;;18.75
18713;BMP280;9485;49.386;8.674;2022-11-15T14:15:26;99548.47;;;18.65
18713;BMP280;9485;49.386;8.674;2022-11-15T14:20:47;99539.69;;;18.55
18713;BMP280;9485;49.386;8.674;2022-11-15T14:26:28;99531.88;;;18.41
18713;BMP280;9485;49.386;8.674;2022-11-15T14:31:49;99528.25;;;18.25
18713;BMP280;9485;49.386;8.674;2022-11-15T14:37:21;99519.06;;;18.19
18713;BMP280;9485;49.386;8.674;2022-11-15T14:42:45;99509.56;;;18.17
18713;BMP280;9485;49.386;8.674;2022-11-15T14:48:06;99506.50;;;18.08
18713;BMP280;9485;49.386;8.674;2022-11-15T14:53:27;99494.66;;;17.96
18713;BMP280;9485;49.386;8.674;2022-11-15T14:58:49;99473.13;;;17.80
18713;BMP280;9485;49.386;8.674;2022-11-15T15:04:10;99466.06;;;17.59
18713;BMP280;9485;49.386;8.674;2022-11-15T15:09:31;99443.97;;;17.52
18713;BMP280;9485;49.386;8.674;2022-11-15T15:14:53;99418.63;;;17.41
18713;BMP280;9485;49.386;8.674;2022-11-15T15:20:14;99413.84;;;17.36
18713;BMP280;9485;49.386;8.674;2022-11-15T15:25:35;99406.63;;;17.28
18713;BMP280;9485;49.386;8.674;2022-11-15T15:30:57;99405.06;;;17.27
18713;BMP280;9485;49.386;8.674;2022-11-15T15:36:18;99421.81;;;17.30
18713;BMP280;9485;49.386;8.674;2022-11-15T15:41:39;99431.34;;;17.33
18713;BMP280;9485;49.386;8.674;2022-11-15T15:47:01;99427.31;;;17.28
18713;BMP280;9485;49.386;8.674;2022-11-15T15:52:22;99413.41;;;17.25
18713;BMP280;9485;49.386;8.674;2022-11-15T15:57:42;99411.13;;;17.23
18713;BMP280;9485;49.386;8.674;2022-11-15T16:03:07;99382.75;;;17.18
18713;BMP280;9485;49.386;8.674;2022-11-15T16:08:27;99381.81;;;17.23
18713;BMP280;9485;49.386;8.674;2022-11-15T16:13:48;99373.09;;;17.21
18713;BMP280;9485;49.386;8.674;2022-11-15T16:19:10;99375.38;;;17.22
18713;BMP280;9485;49.386;8.674;2022-11-15T16:24:31;99371.38;;;17.25
18713;BMP280;9485;49.386;8.674;2022-11-15T16:29:52;99367.00;;;17.24
18713;BMP280;9485;49.386;8.674;2022-11-15T16:35:15;99362.81;;;17.25
18713;BMP280;9485;49.386;8.674;2022-11-15T16:40:36;99355.78;;;17.26
18713;BMP280;9485;49.386;8.674;2022-11-15T16:45:57;99355.44;;;17.30
18713;BMP280;9485;49.386;8.674;2022-11-15T16:51:19;99344.03;;;17.37
18713;BMP280;9485;49.386;8.674;2022-11-15T16:56:40;99332.44;;;17.35
18713;BMP280;9485;49.386;8.674;2022-11-15T17:02:01;99336.41;;;17.32
18713;BMP280;9485;49.386;8.674;2022-11-15T17:07:23;99330.91;;;17.34
18713;BMP280;9485;49.386;8.674;2022-11-15T17:12:44;99333.38;;;17.37
18713;BMP280;9485;49.386;8.674;2022-11-15T17:18:05;99317.59;;;17.29
18713;BMP280;9485;49.386;8.674;2022-11-15T17:23:27;99308.47;;;17.38
18713;BMP280;9485;49.386;8.674;2022-11-15T17:28:48;99298.03;;;17.40
18713;BMP280;9485;49.386;8.674;2022-11-15T17:34:08;99292.88;;;17.39
18713;BMP280;9485;49.386;8.674;2022-11-15T17:39:30;99300.09;;;17.40
18713;BMP280;9485;49.386;8.674;2022-11-15T17:44:50;99285.66;;;17.38
18713;BMP280;9485;49.386;8.674;2022-11-15T17:50:11;99294.97;;;17.46
18713;BMP280;9485;49.386;8.674;2022-11-15T17:55:33;99294.22;;;17.45
18713;BMP280;9485;49.386;8.674;2022-11-15T18:00:54;99287.00;;;17.52
18713;BMP280;9485;49.386;8.674;2022-11-15T18:06:15;99278.06;;;17.55
18713;BMP280;9485;49.386;8.674;2022-11-15T18:11:40;99297.06;;;17.53
18713;BMP280;9485;49.386;8.674;2022-11-15T18:17:01;99292.88;;;17.54
18713;BMP280;9485;49.386;8.674;2022-11-15T18:22:22;99274.22;;;17.53
18713;BMP280;9485;49.386;8.674;2022-11-15T18:27:44;99277.06;;;17.53
18713;BMP280;9485;49.386;8.674;2022-11-15T18:33:06;99258.63;;;17.54
18713;BMP280;9485;49.386;8.674;2022-11-15T18:38:27;99257.50;;;17.57
18713;BMP280;9485;49.386;8.674;2022-11-15T18:43:50;99243.78;;;17.63
18713;BMP280;9485;49.386;8.674;2022-11-15T18:49:14;99246.81;;;17.72
18713;BMP280;9485;49.386;8.674;2022-11-15T18:54:35;99245.28;;;17.79
18713;BMP280;9485;49.386;8.674;2022-11-15T18:59:56;99243.97;;;17.80
18713;BMP280;9485;49.386;8.674;2022-11-15T19:05:17;99248.16;;;17.79
18713;BMP280;9485;49.386;8.674;2022-11-15T19:10:40;99234.25;;;17.75
18713;BMP280;9485;49.386;8.674;2022-11-15T19:16:04;99233.88;;;17.79
18713;BMP280;9485;49.386;8.674;2022-11-15T19:21:26;99232.72;;;17.82
18713;BMP280;9485;49.386;8.674;2022-11-15T19:26:46;99232.94;;;17.69
18713;BMP280;9485;49.386;8.674;2022-11-15T19:32:08;99225.34;;;17.49
18713;BMP280;9485;49.386;8.674;2022-11-15T19:37:29;99233.91;;;17.34
18713;BMP280;9485;49.386;8.674;2022-11-15T19:42:49;99231.38;;;17.16
18713;BMP280;9485;49.386;8.674;2022-11-15T19:48:11;99222.28;;;17.02
18713;BMP280;9485;49.386;8.674;2022-11-15T19:53:35;99219.03;;;16.98
18713;BMP280;9485;49.386;8.674;2022-11-15T19:58:55;99237.84;;;17.01
18713;BMP280;9485;49.386;8.674;2022-11-15T20:04:17;99229.88;;;17.07
18713;BMP280;9485;49.386;8.674;2022-11-15T20:09:38;99218.47;;;17.07
18713;BMP280;9485;49.386;8.674;2022-11-15T20:14:58;99215.25;;;17.03
18713;BMP280;9485;49.386;8.674;2022-11-15T20:20:20;99213.72;;;17.02
18713;BMP280;9485;49.386;8.674;2022-11-15T20:25:43;99205.53;;;16.91
18713;BMP280;9485;49.386;8.674;2022-11-15T20:31:05;99197.13;;;16.78
18713;BMP280;9485;49.386;8.674;2022-11-15T20:36:27;99191.25;;;16.69
18713;BMP280;9485;49.386;8.674;2022-11-15T20:41:48;99177.53;;;16.60
18713;BMP280;9485;49.386;8.674;2022-11-15T20:47:08;99171.09;;;16.59
18713;BMP280;9485;49.386;8.674;2022-11-15T20:52:30;99165.22;;;16.65
18713;BMP280;9485;49.386;8.674;2022-11-15T20:57:50;99147.75;;;16.68
18713;BMP280;9485;49.386;8.674;2022-11-15T21:03:12;99139.94;;;16.69
18713;BMP280;9485;49.386;8.674;2022-11-15T21:08:34;99136.34;;;16.68
18713;BMP280;9485;49.386;8.674;2022-11-15T21:14:09;99126.28;;;16.67
18713;BMP280;9485;49.386;8.674;2022-11-15T21:19:30;99135.00;;;16.62
18713;BMP280;9485;49.386;8.674;2022-11-15T21:24:52;99138.78;;;16.57
18713;BMP280;9485;49.386;8.674;2022-11-15T21:30:13;99133.28;;;16.59
18713;BMP280;9485;49.386;8.674;2022-11-15T21:35:33;99144.66;;;16.59
18713;BMP280;9485;49.386;8.674;2022-11-15T21:40:56;99138.78;;;16.57
18713;BMP280;9485;49.386;8.674;2022-11-15T21:46:16;99135.00;;;16.55
18713;BMP280;9485;49.386;8.674;2022-11-15T21:51:37;99123.19;;;16.51
18713;BMP280;9485;49.386;8.674;2022-11-15T21:56:59;99125.66;;;16.47
18713;BMP280;9485;49.386;8.674;2022-11-15T22:02:19;99122.78;;;16.32
18713;BMP280;9485;49.386;8.674;2022-11-15T22:07:40;99106.75;;;16.06
18713;BMP280;9485;49.386;8.674;2022-11-15T22:13:01;99113.13;;;15.84
18713;BMP280;9485;49.386;8.674;2022-11-15T22:18:23;99115.91;;;15.70
18713;BMP280;9485;49.386;8.674;2022-11-15T22:23:45;99118.28;;;15.58
18713;BMP280;9485;49.386;8.674;2022-11-15T22:29:08;99117.69;;;15.52
18713;BMP280;9485;49.386;8.674;2022-11-15T22:34:29;99109.72;;;15.43
18713;BMP280;9485;49.386;8.674;2022-11-15T22:39:49;99098.06;;;15.34
18713;BMP280;9485;49.386;8.674;2022-11-15T22:45:11;99109.75;;;15.23
18713;BMP280;9485;49.386;8.674;2022-11-15T22:50:32;99087.13;;;15.17
18713;BMP280;9485;49.386;8.674;2022-11-15T22:55:54;99084.66;;;15.14
18713;BMP280;9485;49.386;8.674;2022-11-15T23:01:20;99079.88;;;15.09
18713;BMP280;9485;49.386;8.674;2022-11-15T23:06:43;99082.53;;;15.07
18713;BMP280;9485;49.386;8.674;2022-11-15T23:12:07;99085.50;;;15.01
18713;BMP280;9485;49.386;8.674;2022-11-15T23:17:47;99090.19;;;14.92
18713;BMP280;9485;49.386;8.674;2022-11-15T23:23:09;99096.09;;;14.94
18713;BMP280;9485;49.386;8.674;2022-11-15T23:28:31;99094.34;;;14.91
18713;BMP280;9485;49.386;8.674;2022-11-15T23:33:53;99086.75;;;14.86
18713;BMP280;9485;49.386;8.674;2022-11-15T23:39:17;99088.19;;;14.79
18713;BMP280;9485;49.386;8.674;2022-11-15T23:44:37;99085.84;;;14.70
18713;BMP280;9485;49.386;8.674;2022-11-15T23:49:59;99096.41;;;14.62
18713;BMP280;9485;49.386;8.674;2022-11-15T23:55:20;99086.50;;;14.56
